sensor_id;sensor_type;location;lat;lon;timestamp;P1;durP1;ratioP1;P2;durP2;ratioP2
42704;SDS011;28342;42.594;23.414;2023-02-01T00:01:59;6.95;;;4.10;;
42704;SDS011;28342;42.594;23.414;2023-02-01T00:04:26;3.83;;;3.13;;
42704;SDS011;28342;42.594;23.414;2023-02-01T00:06:51;5.00;;;3.58;;
42704;SDS011;28342;42.594;23.414;2023-02-01T00:09:17;6.38;;;3.97;;
42704;SDS011;28342;42.594;23.414;2023-02-01T00:11:42;7.65;;;3.95;;
42704;SDS011;28342;42.594;23.414;2023-02-01T00:14:09;7.43;;;5.15;;
42704;SDS011;28342;42.594;23.414;2023-02-01T00:16:35;6.32;;;4.13;;
42704;SDS011;28342;42.594;23.414;2023-02-01T00:19:04;5.28;;;4.10;;
42704;SDS011;28342;42.594;23.414;2023-02-01T00:21:39;8.13;;;4.35;;
42704;SDS011;28342;42.594;23.414;2023-02-01T00:24:05;9.32;;;4.55;;
42704;SDS011;28342;42.594;23.414;2023-02-01T00:26:33;7.95;;;4.03;;
42704;SDS011;28342;42.594;23.414;2023-02-01T00:29:05;7.68;;;4.50;;
42704;SDS011;28342;42.594;23.414;2023-02-01T00:31:37;6.38;;;4.25;;
42704;SDS011;28342;42.594;23.414;2023-02-01T00:34:03;7.72;;;4.85;;
42704;SDS011;28342;42.594;23.414;2023-02-01T00:36:29;7.47;;;4.15;;
42704;SDS011;28342;42.594;23.414;2023-02-01T00:38:56;9.57;;;4.32;;
42704;SDS011;28342;42.594;23.414;2023-02-01T00:41:22;18.83;;;6.78;;
42704;SDS011;28342;42.594;23.414;2023-02-01T00:43:48;11.90;;;5.90;;
42704;SDS011;28342;42.594;23.414;2023-02-01T00:46:15;6.60;;;4.00;;
42704;SDS011;28342;42.594;23.414;2023-02-01T00:48:42;7.72;;;4.00;;
42704;SDS011;28342;42.594;23.414;2023-02-01T00:51:10;7.40;;;4.00;;
42704;SDS011;28342;42.594;23.414;2023-02-01T00:53:42;7.38;;;3.70;;
42704;SDS011;28342;42.594;23.414;2023-02-01T00:56:07;6.85;;;4.43;;
42704;SDS011;28342;42.594;23.414;2023-02-01T00:58:34;7.50;;;4.05;;
42704;SDS011;28342;42.594;23.414;2023-02-01T01:01:06;5.97;;;3.50;;
42704;SDS011;28342;42.594;23.414;2023-02-01T01:03:35;6.20;;;3.95;;
42704;SDS011;28342;42.594;23.414;2023-02-01T01:06:04;6.25;;;3.38;;
42704;SDS011;28342;42.594;23.414;2023-02-01T01:08:31;5.30;;;3.45;;
42704;SDS011;28342;42.594;23.414;2023-02-01T01:10:57;8.27;;;4.50;;
42704;SDS011;28342;42.594;23.414;2023-02-01T01:13:23;6.57;;;3.60;;
42704;SDS011;28342;42.594;23.414;2023-02-01T01:15:49;9.05;;;3.92;;
42704;SDS011;28342;42.594;23.414;2023-02-01T01:18:14;7.65;;;3.15;;
42704;SDS011;28342;42.594;23.414;2023-02-01T01:20:40;4.40;;;3.47;;
42704;SDS011;28342;42.594;23.414;2023-02-01T01:23:07;5.70;;;3.47;;
42704;SDS011;28342;42.594;23.414;2023-02-01T01:25:36;6.70;;;3.45;;
42704;SDS011;28342;42.594;23.414;2023-02-01T01:28:05;4.60;;;3.20;;
42704;SDS011;28342;42.594;23.414;2023-02-01T01:30:33;4.93;;;3.70;;
42704;SDS011;28342;42.594;23.414;2023-02-01T01:32:59;5.10;;;3.28;;
42704;SDS011;28342;42.594;23.414;2023-02-01T01:35:24;10.70;;;4.07;;
42704;SDS011;28342;42.594;23.414;2023-02-01T01:37:50;5.55;;;3.15;;
42704;SDS011;28342;42.594;23.414;2023-02-01T01:40:17;4.45;;;2.97;;
42704;SDS011;28342;42.594;23.414;2023-02-01T01:42:43;8.43;;;3.20;;
42704;SDS011;28342;42.594;23.414;2023-02-01T01:48:16;7.15;;;3.45;;
42704;SDS011;28342;42.594;23.414;2023-02-01T01:50:52;5.72;;;2.97;;
42704;SDS011;28342;42.594;23.414;2023-02-01T01:53:26;5.13;;;3.22;;
42704;SDS011;28342;42.594;23.414;2023-02-01T01:55:55;4.72;;;2.58;;
42704;SDS011;28342;42.594;23.414;2023-02-01T01:58:26;4.82;;;2.33;;
42704;SDS011;28342;42.594;23.414;2023-02-01T02:00:54;3.75;;;2.47;;
42704;SDS011;28342;42.594;23.414;2023-02-01T02:03:34;6.78;;;2.53;;
42704;SDS011;28342;42.594;23.414;2023-02-01T02:06:02;3.85;;;2.90;;
42704;SDS011;28342;42.594;23.414;2023-02-01T02:08:32;10.50;;;3.85;;
42704;SDS011;28342;42.594;23.414;2023-02-01T02:10:58;6.93;;;3.30;;
42704;SDS011;28342;42.594;23.414;2023-02-01T02:13:26;7.80;;;3.10;;
42704;SDS011;28342;42.594;23.414;2023-02-01T02:16:02;6.10;;;2.70;;
42704;SDS011;28342;42.594;23.414;2023-02-01T02:21:52;5.50;;;2.70;;
42704;SDS011;28342;42.594;23.414;2023-02-01T02:27:19;5.43;;;2.63;;
42704;SDS011;28342;42.594;23.414;2023-02-01T02:30:14;5.57;;;2.75;;
42704;SDS011;28342;42.594;23.414;2023-02-01T02:39:07;8.63;;;3.78;;
42704;SDS011;28342;42.594;23.414;2023-02-01T02:41:31;7.18;;;2.88;;
42704;SDS011;28342;42.594;23.414;2023-02-01T02:47:33;5.78;;;2.83;;
42704;SDS011;28342;42.594;23.414;2023-02-01T02:53:01;4.82;;;2.78;;
42704;SDS011;28342;42.594;23.414;2023-02-01T02:56:18;7.18;;;2.75;;
42704;SDS011;28342;42.594;23.414;2023-02-01T02:59:05;7.55;;;3.25;;
42704;SDS011;28342;42.594;23.414;2023-02-01T03:01:52;6.68;;;2.63;;
42704;SDS011;28342;42.594;23.414;2023-02-01T03:04:37;4.57;;;2.38;;
42704;SDS011;28342;42.594;23.414;2023-02-01T03:10:08;2.83;;;1.95;;
42704;SDS011;28342;42.594;23.414;2023-02-01T03:12:54;6.32;;;2.58;;
42704;SDS011;28342;42.594;23.414;2023-02-01T03:15:34;5.60;;;2.45;;
42704;SDS011;28342;42.594;23.414;2023-02-01T03:20:36;3.47;;;1.80;;
42704;SDS011;28342;42.594;23.414;2023-02-01T03:23:05;7.28;;;1.70;;
42704;SDS011;28342;42.594;23.414;2023-02-01T03:25:31;3.47;;;1.83;;
42704;SDS011;28342;42.594;23.414;2023-02-01T03:28:00;3.72;;;1.73;;
42704;SDS011;28342;42.594;23.414;2023-02-01T03:30:31;3.67;;;2.00;;
42704;SDS011;28342;42.594;23.414;2023-02-01T03:33:02;5.05;;;1.90;;
42704;SDS011;28342;42.594;23.414;2023-02-01T03:35:45;3.28;;;1.92;;
42704;SDS011;28342;42.594;23.414;2023-02-01T03:38:34;13.60;;;4.10;;
42704;SDS011;28342;42.594;23.414;2023-02-01T03:44:16;5.18;;;1.80;;
42704;SDS011;28342;42.594;23.414;2023-02-01T03:46:47;3.60;;;1.75;;
42704;SDS011;28342;42.594;23.414;2023-02-01T03:49:27;6.95;;;2.28;;
42704;SDS011;28342;42.594;23.414;2023-02-01T03:51:58;4.03;;;1.80;;
42704;SDS011;28342;42.594;23.414;2023-02-01T03:54:25;5.70;;;2.15;;
42704;SDS011;28342;42.594;23.414;2023-02-01T03:56:52;4.63;;;1.92;;
42704;SDS011;28342;42.594;23.414;2023-02-01T03:59:21;3.15;;;2.00;;
42704;SDS011;28342;42.594;23.414;2023-02-01T04:01:49;4.50;;;1.60;;
42704;SDS011;28342;42.594;23.414;2023-02-01T04:04:16;3.70;;;2.05;;
42704;SDS011;28342;42.594;23.414;2023-02-01T04:06:46;3.60;;;1.95;;
42704;SDS011;28342;42.594;23.414;2023-02-01T04:09:12;6.32;;;2.38;;
42704;SDS011;28342;42.594;23.414;2023-02-01T04:11:38;2.95;;;1.70;;
42704;SDS011;28342;42.594;23.414;2023-02-01T04:14:03;6.70;;;2.30;;
42704;SDS011;28342;42.594;23.414;2023-02-01T04:16:30;4.63;;;1.80;;
42704;SDS011;28342;42.594;23.414;2023-02-01T04:18:57;4.45;;;1.88;;
42704;SDS011;28342;42.594;23.414;2023-02-01T04:21:23;5.00;;;2.10;;
42704;SDS011;28342;42.594;23.414;2023-02-01T04:23:50;2.63;;;2.20;;
42704;SDS011;28342;42.594;23.414;2023-02-01T04:26:18;4.40;;;2.05;;
42704;SDS011;28342;42.594;23.414;2023-02-01T04:28:45;4.25;;;1.90;;
42704;SDS011;28342;42.594;23.414;2023-02-01T04:31:17;5.10;;;2.20;;
42704;SDS011;28342;42.594;23.414;2023-02-01T04:33:50;3.42;;;2.00;;
42704;SDS011;28342;42.594;23.414;2023-02-01T04:36:19;2.55;;;1.83;;
42704;SDS011;28342;42.594;23.414;2023-02-01T04:38:46;3.30;;;1.95;;
42704;SDS011;28342;42.594;23.414;2023-02-01T04:41:12;3.05;;;2.28;;
42704;SDS011;28342;42.594;23.414;2023-02-01T04:43:38;4.30;;;2.80;;
42704;SDS011;28342;42.594;23.414;2023-02-01T04:46:06;7.10;;;2.72;;
42704;SDS011;28342;42.594;23.414;2023-02-01T04:48:33;5.57;;;2.75;;
42704;SDS011;28342;42.594;23.414;2023-02-01T04:50:59;4.80;;;2.50;;
42704;SDS011;28342;42.594;23.414;2023-02-01T04:53:24;5.95;;;3.20;;
42704;SDS011;28342;42.594;23.414;2023-02-01T04:55:50;5.70;;;3.38;;
42704;SDS011;28342;42.594;23.414;2023-02-01T04:58:15;4.22;;;2.80;;
42704;SDS011;28342;42.594;23.414;2023-02-01T05:00:41;7.15;;;3.53;;
42704;SDS011;28342;42.594;23.414;2023-02-01T05:03:07;8.13;;;3.70;;
42704;SDS011;28342;42.594;23.414;2023-02-01T05:05:32;5.38;;;2.95;;
42704;SDS011;28342;42.594;23.414;2023-02-01T05:07:58;8.65;;;3.58;;
42704;SDS011;28342;42.594;23.414;2023-02-01T05:13:45;8.30;;;3.42;;
42704;SDS011;28342;42.594;23.414;2023-02-01T05:16:14;6.57;;;2.80;;
42704;SDS011;28342;42.594;23.414;2023-02-01T05:18:40;7.28;;;4.05;;
42704;SDS011;28342;42.594;23.414;2023-02-01T05:21:05;6.90;;;3.28;;
42704;SDS011;28342;42.594;23.414;2023-02-01T05:23:31;5.95;;;3.97;;
42704;SDS011;28342;42.594;23.414;2023-02-01T05:26:00;7.03;;;3.83;;
42704;SDS011;28342;42.594;23.414;2023-02-01T05:28:27;4.72;;;3.63;;
42704;SDS011;28342;42.594;23.414;2023-02-01T05:30:53;6.85;;;3.60;;
42704;SDS011;28342;42.594;23.414;2023-02-01T05:33:21;7.97;;;3.70;;
42704;SDS011;28342;42.594;23.414;2023-02-01T05:35:46;5.82;;;3.10;;
42704;SDS011;28342;42.594;23.414;2023-02-01T05:38:12;7.35;;;3.60;;
42704;SDS011;28342;42.594;23.414;2023-02-01T05:40:37;8.38;;;3.70;;
42704;SDS011;28342;42.594;23.414;2023-02-01T05:43:02;7.20;;;3.60;;
42704;SDS011;28342;42.594;23.414;2023-02-01T05:45:28;6.78;;;3.20;;
42704;SDS011;28342;42.594;23.414;2023-02-01T05:47:54;6.93;;;3.33;;
42704;SDS011;28342;42.594;23.414;2023-02-01T05:50:21;10.32;;;4.03;;
42704;SDS011;28342;42.594;23.414;2023-02-01T05:52:46;7.05;;;3.38;;
42704;SDS011;28342;42.594;23.414;2023-02-01T05:55:12;8.27;;;3.60;;
42704;SDS011;28342;42.594;23.414;2023-02-01T05:57:38;11.70;;;4.05;;
42704;SDS011;28342;42.594;23.414;2023-02-01T06:00:04;6.60;;;3.90;;
42704;SDS011;28342;42.594;23.414;2023-02-01T06:02:29;6.97;;;3.33;;
42704;SDS011;28342;42.594;23.414;2023-02-01T06:04:55;6.60;;;2.83;;
42704;SDS011;28342;42.594;23.414;2023-02-01T06:07:20;7.13;;;3.30;;
42704;SDS011;28342;42.594;23.414;2023-02-01T06:09:47;5.55;;;3.03;;
42704;SDS011;28342;42.594;23.414;2023-02-01T06:12:12;6.35;;;3.47;;
42704;SDS011;28342;42.594;23.414;2023-02-01T06:14:38;5.30;;;2.70;;
42704;SDS011;28342;42.594;23.414;2023-02-01T06:17:04;6.18;;;2.88;;
42704;SDS011;28342;42.594;23.414;2023-02-01T06:19:31;5.60;;;2.40;;
42704;SDS011;28342;42.594;23.414;2023-02-01T06:21:56;8.15;;;2.55;;
42704;SDS011;28342;42.594;23.414;2023-02-01T06:24:22;6.43;;;2.30;;
42704;SDS011;28342;42.594;23.414;2023-02-01T06:26:48;8.32;;;2.33;;
42704;SDS011;28342;42.594;23.414;2023-02-01T06:29:13;10.05;;;2.60;;
42704;SDS011;28342;42.594;23.414;2023-02-01T06:31:38;4.55;;;2.58;;
42704;SDS011;28342;42.594;23.414;2023-02-01T06:34:04;6.38;;;2.67;;
42704;SDS011;28342;42.594;23.414;2023-02-01T06:36:38;11.13;;;3.80;;
42704;SDS011;28342;42.594;23.414;2023-02-01T06:39:05;13.15;;;2.80;;
42704;SDS011;28342;42.594;23.414;2023-02-01T06:41:30;6.13;;;2.50;;
42704;SDS011;28342;42.594;23.414;2023-02-01T06:43:56;6.43;;;2.47;;
42704;SDS011;28342;42.594;23.414;2023-02-01T06:46:26;6.28;;;2.63;;
42704;SDS011;28342;42.594;23.414;2023-02-01T06:48:57;9.38;;;2.95;;
42704;SDS011;28342;42.594;23.414;2023-02-01T06:51:28;11.05;;;4.47;;
42704;SDS011;28342;42.594;23.414;2023-02-01T06:53:54;10.05;;;4.78;;
42704;SDS011;28342;42.594;23.414;2023-02-01T06:56:20;3.97;;;2.00;;
42704;SDS011;28342;42.594;23.414;2023-02-01T06:58:47;4.10;;;2.15;;
42704;SDS011;28342;42.594;23.414;2023-02-01T07:01:13;6.80;;;2.50;;
42704;SDS011;28342;42.594;23.414;2023-02-01T07:03:39;8.75;;;2.67;;
42704;SDS011;28342;42.594;23.414;2023-02-01T07:06:06;6.82;;;2.50;;
42704;SDS011;28342;42.594;23.414;2023-02-01T07:08:33;8.27;;;2.60;;
42704;SDS011;28342;42.594;23.414;2023-02-01T07:11:03;5.65;;;1.90;;
42704;SDS011;28342;42.594;23.414;2023-02-01T07:13:31;6.70;;;2.40;;
42704;SDS011;28342;42.594;23.414;2023-02-01T07:15:59;5.88;;;2.55;;
42704;SDS011;28342;42.594;23.414;2023-02-01T07:18:31;5.68;;;2.33;;
42704;SDS011;28342;42.594;23.414;2023-02-01T07:21:22;9.18;;;3.00;;
42704;SDS011;28342;42.594;23.414;2023-02-01T07:23:50;10.00;;;4.15;;
42704;SDS011;28342;42.594;23.414;2023-02-01T07:26:21;6.57;;;2.78;;
42704;SDS011;28342;42.594;23.414;2023-02-01T07:28:48;5.30;;;2.50;;
42704;SDS011;28342;42.594;23.414;2023-02-01T07:31:17;9.50;;;2.67;;
42704;SDS011;28342;42.594;23.414;2023-02-01T07:33:51;7.97;;;2.67;;
42704;SDS011;28342;42.594;23.414;2023-02-01T07:36:17;7.03;;;3.15;;
42704;SDS011;28342;42.594;23.414;2023-02-01T07:38:44;8.13;;;2.60;;
42704;SDS011;28342;42.594;23.414;2023-02-01T07:41:11;9.18;;;2.78;;
42704;SDS011;28342;42.594;23.414;2023-02-01T07:43:37;5.28;;;2.72;;
42704;SDS011;28342;42.594;23.414;2023-02-01T07:46:05;5.45;;;2.42;;
42704;SDS011;28342;42.594;23.414;2023-02-01T07:48:35;3.70;;;2.45;;
42704;SDS011;28342;42.594;23.414;2023-02-01T07:51:02;6.68;;;2.50;;
42704;SDS011;28342;42.594;23.414;2023-02-01T07:53:32;6.10;;;2.30;;
42704;SDS011;28342;42.594;23.414;2023-02-01T07:56:12;5.95;;;2.47;;
42704;SDS011;28342;42.594;23.414;2023-02-01T07:58:46;8.45;;;2.75;;
42704;SDS011;28342;42.594;23.414;2023-02-01T08:01:16;6.55;;;2.78;;
42704;SDS011;28342;42.594;23.414;2023-02-01T08:03:47;5.63;;;2.10;;
42704;SDS011;28342;42.594;23.414;2023-02-01T08:06:13;5.05;;;2.50;;
42704;SDS011;28342;42.594;23.414;2023-02-01T08:08:39;9.60;;;3.38;;
42704;SDS011;28342;42.594;23.414;2023-02-01T08:11:05;5.85;;;2.17;;
42704;SDS011;28342;42.594;23.414;2023-02-01T08:13:33;6.97;;;2.42;;
42704;SDS011;28342;42.594;23.414;2023-02-01T08:16:00;11.45;;;2.63;;
42704;SDS011;28342;42.594;23.414;2023-02-01T08:18:29;8.40;;;2.40;;
42704;SDS011;28342;42.594;23.414;2023-02-01T08:20:55;15.55;;;5.25;;
42704;SDS011;28342;42.594;23.414;2023-02-01T08:23:21;8.48;;;2.03;;
42704;SDS011;28342;42.594;23.414;2023-02-01T08:25:49;4.00;;;1.98;;
42704;SDS011;28342;42.594;23.414;2023-02-01T08:28:14;9.07;;;3.58;;
42704;SDS011;28342;42.594;23.414;2023-02-01T08:30:40;4.03;;;2.20;;
42704;SDS011;28342;42.594;23.414;2023-02-01T08:33:09;7.03;;;2.30;;
42704;SDS011;28342;42.594;23.414;2023-02-01T08:35:35;5.00;;;2.25;;
42704;SDS011;28342;42.594;23.414;2023-02-01T08:38:01;8.75;;;2.67;;
42704;SDS011;28342;42.594;23.414;2023-02-01T08:40:30;5.90;;;2.20;;
42704;SDS011;28342;42.594;23.414;2023-02-01T08:42:57;5.40;;;2.67;;
42704;SDS011;28342;42.594;23.414;2023-02-01T08:45:26;5.72;;;2.00;;
42704;SDS011;28342;42.594;23.414;2023-02-01T08:48:01;10.45;;;2.50;;
42704;SDS011;28342;42.594;23.414;2023-02-01T08:50:27;8.05;;;2.60;;
42704;SDS011;28342;42.594;23.414;2023-02-01T08:52:52;10.52;;;3.10;;
42704;SDS011;28342;42.594;23.414;2023-02-01T08:55:18;3.92;;;2.17;;
42704;SDS011;28342;42.594;23.414;2023-02-01T08:57:44;5.28;;;2.42;;
42704;SDS011;28342;42.594;23.414;2023-02-01T09:00:11;6.50;;;4.43;;
42704;SDS011;28342;42.594;23.414;2023-02-01T09:02:39;9.23;;;2.88;;
42704;SDS011;28342;42.594;23.414;2023-02-01T09:05:05;9.63;;;2.70;;
42704;SDS011;28342;42.594;23.414;2023-02-01T09:07:31;8.48;;;3.72;;
42704;SDS011;28342;42.594;23.414;2023-02-01T09:09:57;9.65;;;2.92;;
42704;SDS011;28342;42.594;23.414;2023-02-01T09:12:26;6.50;;;1.95;;
42704;SDS011;28342;42.594;23.414;2023-02-01T09:14:52;10.07;;;3.38;;
42704;SDS011;28342;42.594;23.414;2023-02-01T09:17:18;8.43;;;2.75;;
42704;SDS011;28342;42.594;23.414;2023-02-01T09:19:43;4.22;;;2.30;;
42704;SDS011;28342;42.594;23.414;2023-02-01T09:22:09;9.40;;;3.55;;
42704;SDS011;28342;42.594;23.414;2023-02-01T09:24:34;4.65;;;2.20;;
42704;SDS011;28342;42.594;23.414;2023-02-01T09:27:00;5.20;;;1.83;;
42704;SDS011;28342;42.594;23.414;2023-02-01T09:29:25;3.65;;;1.80;;
42704;SDS011;28342;42.594;23.414;2023-02-01T09:31:51;11.20;;;2.42;;
42704;SDS011;28342;42.594;23.414;2023-02-01T09:34:16;16.83;;;9.38;;
42704;SDS011;28342;42.594;23.414;2023-02-01T09:36:42;8.43;;;4.38;;
42704;SDS011;28342;42.594;23.414;2023-02-01T09:39:08;12.18;;;5.38;;
42704;SDS011;28342;42.594;23.414;2023-02-01T09:47:08;10.57;;;4.18;;
42704;SDS011;28342;42.594;23.414;2023-02-01T09:49:37;13.57;;;4.20;;
42704;SDS011;28342;42.594;23.414;2023-02-01T09:52:12;7.20;;;2.78;;
42704;SDS011;28342;42.594;23.414;2023-02-01T09:54:50;7.47;;;2.40;;
42704;SDS011;28342;42.594;23.414;2023-02-01T09:57:24;6.25;;;2.58;;
42704;SDS011;28342;42.594;23.414;2023-02-01T10:00:04;8.68;;;4.13;;
42704;SDS011;28342;42.594;23.414;2023-02-01T10:02:40;16.08;;;8.45;;
42704;SDS011;28342;42.594;23.414;2023-02-01T10:05:12;4.85;;;2.70;;
42704;SDS011;28342;42.594;23.414;2023-02-01T10:07:47;6.18;;;2.30;;
42704;SDS011;28342;42.594;23.414;2023-02-01T10:13:17;3.70;;;2.10;;
42704;SDS011;28342;42.594;23.414;2023-02-01T10:15:48;10.30;;;2.92;;
42704;SDS011;28342;42.594;23.414;2023-02-01T10:24:11;10.82;;;4.75;;
42704;SDS011;28342;42.594;23.414;2023-02-01T10:27:13;7.90;;;2.28;;
42704;SDS011;28342;42.594;23.414;2023-02-01T10:29:43;10.63;;;4.07;;
42704;SDS011;28342;42.594;23.414;2023-02-01T10:32:13;9.70;;;4.78;;
42704;SDS011;28342;42.594;23.414;2023-02-01T10:34:46;7.43;;;3.10;;
42704;SDS011;28342;42.594;23.414;2023-02-01T10:37:31;7.78;;;3.15;;
42704;SDS011;28342;42.594;23.414;2023-02-01T10:40:00;10.63;;;3.67;;
42704;SDS011;28342;42.594;23.414;2023-02-01T10:42:49;7.40;;;2.80;;
42704;SDS011;28342;42.594;23.414;2023-02-01T10:45:23;12.63;;;2.60;;
42704;SDS011;28342;42.594;23.414;2023-02-01T10:47:55;5.40;;;2.55;;
42704;SDS011;28342;42.594;23.414;2023-02-01T10:50:46;3.85;;;1.98;;
42704;SDS011;28342;42.594;23.414;2023-02-01T10:56:38;4.15;;;2.25;;
42704;SDS011;28342;42.594;23.414;2023-02-01T10:59:17;6.13;;;2.10;;
42704;SDS011;28342;42.594;23.414;2023-02-01T11:01:50;5.07;;;2.17;;
42704;SDS011;28342;42.594;23.414;2023-02-01T11:06:52;4.22;;;2.33;;
42704;SDS011;28342;42.594;23.414;2023-02-01T11:09:40;6.35;;;2.05;;
42704;SDS011;28342;42.594;23.414;2023-02-01T11:12:48;5.22;;;2.25;;
42704;SDS011;28342;42.594;23.414;2023-02-01T11:14:58;7.07;;;2.70;;
42704;SDS011;28342;42.594;23.414;2023-02-01T11:17:46;7.70;;;2.10;;
42704;SDS011;28342;42.594;23.414;2023-02-01T11:20:53;7.78;;;2.95;;
42704;SDS011;28342;42.594;23.414;2023-02-01T11:23:15;7.93;;;2.13;;
42704;SDS011;28342;42.594;23.414;2023-02-01T11:25:51;5.70;;;2.53;;
42704;SDS011;28342;42.594;23.414;2023-02-01T11:29:11;6.65;;;3.40;;
42704;SDS011;28342;42.594;23.414;2023-02-01T11:31:43;3.88;;;2.05;;
42704;SDS011;28342;42.594;23.414;2023-02-01T11:34:16;5.38;;;2.25;;
42704;SDS011;28342;42.594;23.414;2023-02-01T11:36:45;5.05;;;2.70;;
42704;SDS011;28342;42.594;23.414;2023-02-01T11:41:42;4.22;;;1.80;;
42704;SDS011;28342;42.594;23.414;2023-02-01T11:44:20;27.02;;;8.15;;
42704;SDS011;28342;42.594;23.414;2023-02-01T11:46:51;42.85;;;10.25;;
42704;SDS011;28342;42.594;23.414;2023-02-01T11:52:14;36.42;;;10.45;;
42704;SDS011;28342;42.594;23.414;2023-02-01T11:55:29;28.17;;;9.48;;
42704;SDS011;28342;42.594;23.414;2023-02-01T12:09:02;7.13;;;3.30;;
42704;SDS011;28342;42.594;23.414;2023-02-01T12:12:08;7.80;;;2.72;;
42704;SDS011;28342;42.594;23.414;2023-02-01T12:15:15;7.13;;;2.80;;
42704;SDS011;28342;42.594;23.414;2023-02-01T12:21:04;4.93;;;2.25;;
42704;SDS011;28342;42.594;23.414;2023-02-01T12:23:53;8.02;;;3.53;;
42704;SDS011;28342;42.594;23.414;2023-02-01T12:29:33;5.82;;;2.88;;
42704;SDS011;28342;42.594;23.414;2023-02-01T12:34:56;2.50;;;1.58;;
42704;SDS011;28342;42.594;23.414;2023-02-01T12:42:48;7.13;;;3.13;;
42704;SDS011;28342;42.594;23.414;2023-02-01T12:45:31;5.28;;;2.47;;
42704;SDS011;28342;42.594;23.414;2023-02-01T12:48:08;4.75;;;1.80;;
42704;SDS011;28342;42.594;23.414;2023-02-01T12:50:50;9.07;;;3.80;;
42704;SDS011;28342;42.594;23.414;2023-02-01T12:53:26;3.47;;;2.28;;
42704;SDS011;28342;42.594;23.414;2023-02-01T12:56:01;7.95;;;2.35;;
42704;SDS011;28342;42.594;23.414;2023-02-01T12:58:39;4.72;;;2.03;;
42704;SDS011;28342;42.594;23.414;2023-02-01T13:01:14;9.85;;;3.53;;
42704;SDS011;28342;42.594;23.414;2023-02-01T13:03:50;11.95;;;4.22;;
42704;SDS011;28342;42.594;23.414;2023-02-01T13:06:29;3.05;;;1.85;;
42704;SDS011;28342;42.594;23.414;2023-02-01T13:09:22;5.53;;;1.58;;
42704;SDS011;28342;42.594;23.414;2023-02-01T13:11:53;11.40;;;3.83;;
42704;SDS011;28342;42.594;23.414;2023-02-01T13:17:15;5.70;;;2.30;;
42704;SDS011;28342;42.594;23.414;2023-02-01T13:19:49;7.43;;;2.53;;
42704;SDS011;28342;42.594;23.414;2023-02-01T13:22:29;4.13;;;1.85;;
42704;SDS011;28342;42.594;23.414;2023-02-01T13:28:00;3.85;;;2.45;;
42704;SDS011;28342;42.594;23.414;2023-02-01T13:33:38;5.45;;;2.30;;
42704;SDS011;28342;42.594;23.414;2023-02-01T13:42:17;3.55;;;1.67;;
42704;SDS011;28342;42.594;23.414;2023-02-01T13:44:47;5.93;;;2.80;;
42704;SDS011;28342;42.594;23.414;2023-02-01T13:49:54;5.78;;;2.10;;
42704;SDS011;28342;42.594;23.414;2023-02-01T13:52:25;3.95;;;1.80;;
42704;SDS011;28342;42.594;23.414;2023-02-01T13:55:42;9.15;;;3.00;;
42704;SDS011;28342;42.594;23.414;2023-02-01T13:58:10;3.80;;;1.80;;
42704;SDS011;28342;42.594;23.414;2023-02-01T14:00:53;4.95;;;1.75;;
42704;SDS011;28342;42.594;23.414;2023-02-01T14:03:49;2.85;;;1.48;;
42704;SDS011;28342;42.594;23.414;2023-02-01T14:09:09;7.40;;;4.00;;
42704;SDS011;28342;42.594;23.414;2023-02-01T14:11:43;6.15;;;2.65;;
42704;SDS011;28342;42.594;23.414;2023-02-01T14:16:39;7.97;;;3.90;;
42704;SDS011;28342;42.594;23.414;2023-02-01T14:19:07;7.57;;;3.80;;
42704;SDS011;28342;42.594;23.414;2023-02-01T14:21:59;3.28;;;1.95;;
42704;SDS011;28342;42.594;23.414;2023-02-01T14:24:49;4.07;;;2.25;;
42704;SDS011;28342;42.594;23.414;2023-02-01T14:27:21;5.85;;;2.10;;
42704;SDS011;28342;42.594;23.414;2023-02-01T14:29:57;6.25;;;2.42;;
42704;SDS011;28342;42.594;23.414;2023-02-01T14:32:35;3.65;;;2.00;;
42704;SDS011;28342;42.594;23.414;2023-02-01T14:35:06;7.85;;;2.75;;
42704;SDS011;28342;42.594;23.414;2023-02-01T14:37:43;7.03;;;2.40;;
42704;SDS011;28342;42.594;23.414;2023-02-01T14:47:44;20.48;;;8.15;;
42704;SDS011;28342;42.594;23.414;2023-02-01T15:00:59;6.30;;;2.60;;
42704;SDS011;28342;42.594;23.414;2023-02-01T15:06:04;5.38;;;2.25;;
42704;SDS011;28342;42.594;23.414;2023-02-01T15:08:33;7.35;;;2.10;;
42704;SDS011;28342;42.594;23.414;2023-02-01T15:11:09;6.60;;;3.07;;
42704;SDS011;28342;42.594;23.414;2023-02-01T15:13:39;9.48;;;4.13;;
42704;SDS011;28342;42.594;23.414;2023-02-01T15:16:11;3.47;;;1.90;;
42704;SDS011;28342;42.594;23.414;2023-02-01T15:18:41;6.20;;;3.40;;
42704;SDS011;28342;42.594;23.414;2023-02-01T15:21:15;4.82;;;2.45;;
42704;SDS011;28342;42.594;23.414;2023-02-01T15:23:45;2.83;;;1.80;;
42704;SDS011;28342;42.594;23.414;2023-02-01T15:26:34;5.40;;;1.70;;
42704;SDS011;28342;42.594;23.414;2023-02-01T15:28:59;4.43;;;2.10;;
42704;SDS011;28342;42.594;23.414;2023-02-01T15:31:31;6.18;;;2.30;;
42704;SDS011;28342;42.594;23.414;2023-02-01T15:34:09;9.68;;;3.80;;
42704;SDS011;28342;42.594;23.414;2023-02-01T15:36:37;16.98;;;5.95;;
42704;SDS011;28342;42.594;23.414;2023-02-01T15:42:01;19.23;;;7.68;;
42704;SDS011;28342;42.594;23.414;2023-02-01T15:44:39;24.15;;;9.10;;
42704;SDS011;28342;42.594;23.414;2023-02-01T15:47:26;25.33;;;10.63;;
42704;SDS011;28342;42.594;23.414;2023-02-01T15:49:54;26.65;;;12.82;;
42704;SDS011;28342;42.594;23.414;2023-02-01T15:52:34;30.35;;;12.23;;
42704;SDS011;28342;42.594;23.414;2023-02-01T15:55:02;25.58;;;11.77;;
42704;SDS011;28342;42.594;23.414;2023-02-01T15:57:35;28.95;;;13.00;;
42704;SDS011;28342;42.594;23.414;2023-02-01T16:00:06;40.92;;;18.52;;
42704;SDS011;28342;42.594;23.414;2023-02-01T16:02:41;30.25;;;13.50;;
42704;SDS011;28342;42.594;23.414;2023-02-01T16:05:35;11.77;;;6.13;;
42704;SDS011;28342;42.594;23.414;2023-02-01T16:08:10;9.93;;;4.18;;
42704;SDS011;28342;42.594;23.414;2023-02-01T16:10:41;8.90;;;4.47;;
42704;SDS011;28342;42.594;23.414;2023-02-01T16:13:12;8.48;;;4.30;;
42704;SDS011;28342;42.594;23.414;2023-02-01T16:15:40;10.88;;;4.85;;
42704;SDS011;28342;42.594;23.414;2023-02-01T16:18:05;14.43;;;5.35;;
42704;SDS011;28342;42.594;23.414;2023-02-01T16:20:36;16.00;;;6.70;;
42704;SDS011;28342;42.594;23.414;2023-02-01T16:23:05;13.70;;;6.70;;
42704;SDS011;28342;42.594;23.414;2023-02-01T16:25:32;16.73;;;5.78;;
42704;SDS011;28342;42.594;23.414;2023-02-01T16:28:00;24.73;;;9.77;;
42704;SDS011;28342;42.594;23.414;2023-02-01T16:30:26;11.48;;;5.70;;
42704;SDS011;28342;42.594;23.414;2023-02-01T16:32:55;9.23;;;4.53;;
42704;SDS011;28342;42.594;23.414;2023-02-01T16:35:30;8.23;;;3.10;;
42704;SDS011;28342;42.594;23.414;2023-02-01T16:38:01;7.40;;;3.83;;
42704;SDS011;28342;42.594;23.414;2023-02-01T16:40:37;15.07;;;6.55;;
42704;SDS011;28342;42.594;23.414;2023-02-01T16:43:07;6.25;;;3.00;;
42704;SDS011;28342;42.594;23.414;2023-02-01T16:45:37;6.70;;;2.65;;
42704;SDS011;28342;42.594;23.414;2023-02-01T16:48:03;12.50;;;5.07;;
42704;SDS011;28342;42.594;23.414;2023-02-01T16:50:29;13.18;;;5.15;;
42704;SDS011;28342;42.594;23.414;2023-02-01T16:52:59;15.90;;;7.88;;
42704;SDS011;28342;42.594;23.414;2023-02-01T16:55:26;10.43;;;4.30;;
42704;SDS011;28342;42.594;23.414;2023-02-01T16:57:52;13.10;;;6.20;;
42704;SDS011;28342;42.594;23.414;2023-02-01T17:00:19;12.63;;;5.90;;
42704;SDS011;28342;42.594;23.414;2023-02-01T17:02:46;5.30;;;2.28;;
42704;SDS011;28342;42.594;23.414;2023-02-01T17:05:12;6.03;;;3.10;;
42704;SDS011;28342;42.594;23.414;2023-02-01T17:07:37;14.43;;;6.35;;